createdAt,value
2018-07-22T00:02:17.788Z,66.46
2018-07-22T00:04:44.681Z,66.28
2018-07-22T00:07:11.829Z,66.46
2018-07-22T00:09:38.700Z,66.91
2018-07-22T00:12:05.864Z,65.68
2018-07-22T00:14:32.736Z,67.10
2018-07-22T00:16:59.603Z,66.50
2018-07-22T00:19:26.480Z,66.39
2018-07-22T00:21:53.514Z,67.00
2018-07-22T00:24:20.405Z,67.37
2018-07-22T00:26:47.296Z,67.21
2018-07-22T00:29:14.174Z,67.32
2018-07-22T00:31:41.287Z,67.34
2018-07-22T00:34:08.175Z,67.82
2018-07-22T00:36:35.055Z,68.03
2018-07-22T00:39:01.960Z,67.19
2018-07-22T00:41:28.853Z,68.80
2018-07-22T00:43:55.728Z,69.60
2018-07-22T00:46:22.644Z,71.87
2018-07-22T00:48:49.505Z,72.91
2018-07-22T00:51:16.388Z,73.77
2018-07-22T00:53:43.275Z,75.38
2018-07-22T00:56:10.156Z,75.89
2018-07-22T00:58:37.052Z,76.92
2018-07-22T01:01:04.028Z,76.12
2018-07-22T01:03:30.940Z,76.26
2018-07-22T01:05:57.829Z,75.81
2018-07-22T01:08:24.724Z,76.31
2018-07-22T01:10:51.632Z,75.88
2018-07-22T01:13:18.576Z,76.52
2018-07-22T01:15:45.481Z,77.00
2018-07-22T01:18:12.403Z,77.05
2018-07-22T01:20:39.297Z,76.55
2018-07-22T01:23:06.471Z,76.22
2018-07-22T01:25:33.388Z,76.34
2018-07-22T01:28:00.293Z,76.68
2018-07-22T01:30:27.180Z,77.84
2018-07-22T01:32:54.089Z,77.87
2018-07-22T01:35:21.023Z,77.57
2018-07-22T01:37:47.928Z,77.68
2018-07-22T01:40:14.827Z,77.42
2018-07-22T01:42:41.711Z,76.84
2018-07-22T01:45:08.631Z,79.31
2018-07-22T01:47:35.544Z,78.02
2018-07-22T01:50:02.468Z,77.58
2018-07-22T01:52:29.362Z,78.13
2018-07-22T01:54:56.256Z,78.31
2018-07-22T01:57:23.158Z,77.60
2018-07-22T01:59:50.044Z,77.58
2018-07-22T02:02:16.939Z,77.52
2018-07-22T02:04:43.843Z,77.25
2018-07-22T02:07:10.732Z,77.26
2018-07-22T02:09:37.628Z,77.01
2018-07-22T02:12:04.620Z,78.47
2018-07-22T02:14:31.519Z,79.41
2018-07-22T02:16:58.395Z,79.41
2018-07-22T02:19:25.295Z,79.70
2018-07-22T02:21:52.182Z,78.73
2018-07-22T02:24:19.072Z,78.43
2018-07-22T02:26:45.952Z,79.77
2018-07-22T02:29:12.847Z,80.11
2018-07-22T02:31:39.728Z,79.01
2018-07-22T02:34:06.661Z,79.94
2018-07-22T02:36:33.576Z,80.92
2018-07-22T02:39:00.468Z,80.63
2018-07-22T02:41:27.492Z,80.13
2018-07-22T02:43:54.395Z,80.69
2018-07-22T02:46:21.292Z,80.58
2018-07-22T02:48:48.222Z,81.73
2018-07-22T02:51:15.112Z,80.64
2018-07-22T02:53:42.008Z,81.83
2018-07-22T02:56:08.968Z,81.86
2018-07-22T02:58:35.860Z,83.29
2018-07-22T03:01:02.765Z,83.63
2018-07-22T03:03:29.661Z,83.14
2018-07-22T03:05:56.549Z,83.16
2018-07-22T03:08:23.458Z,83.36
2018-07-22T03:10:50.380Z,84.68
2018-07-22T03:13:17.280Z,83.85
2018-07-22T03:15:44.177Z,83.95
2018-07-22T03:18:11.064Z,86.04
2018-07-22T03:20:37.956Z,86.80
2018-07-22T03:23:05.136Z,87.35
2018-07-22T03:25:32.024Z,86.40
2018-07-22T03:27:58.912Z,86.94
2018-07-22T03:30:25.873Z,86.32
2018-07-22T03:32:52.748Z,87.76
2018-07-22T03:35:19.674Z,88.26
2018-07-22T03:37:46.553Z,88.92
2018-07-22T03:40:13.500Z,89.43
2018-07-22T03:42:40.380Z,89.94
2018-07-22T03:45:07.305Z,90.54
2018-07-22T03:47:34.213Z,90.46
2018-07-22T03:50:01.118Z,91.15
2018-07-22T03:52:28.003Z,91.86
2018-07-22T03:54:55.126Z,92.40
2018-07-22T03:57:22.004Z,93.37
2018-07-22T03:59:48.888Z,94.00
2018-07-22T04:02:15.788Z,93.71
2018-07-22T04:04:42.701Z,94.13
2018-07-22T04:07:09.580Z,93.86
2018-07-22T04:09:36.487Z,93.76
2018-07-22T04:12:03.376Z,93.30
2018-07-22T04:14:30.272Z,94.37
2018-07-22T04:16:57.173Z,93.97
2018-07-22T04:19:24.073Z,94.23
2018-07-22T04:21:50.965Z,93.91
2018-07-22T04:24:17.850Z,94.39
2018-07-22T04:26:44.758Z,95.09
2018-07-22T04:29:11.661Z,96.34
2018-07-22T04:31:38.576Z,95.71
2018-07-22T04:34:05.487Z,96.50
2018-07-22T04:36:32.375Z,96.16
2018-07-22T04:38:59.260Z,95.06
2018-07-22T04:41:26.172Z,94.98
2018-07-22T04:43:53.051Z,95.17
2018-07-22T04:46:19.949Z,93.03
2018-07-22T04:48:46.860Z,93.79
2018-07-22T04:51:13.761Z,93.36
2018-07-22T04:53:40.654Z,93.21
2018-07-22T04:56:07.552Z,93.42
2018-07-22T04:58:34.460Z,92.32
2018-07-22T05:01:01.356Z,91.64
2018-07-22T05:03:28.243Z,88.54
2018-07-22T05:05:55.180Z,88.49
2018-07-22T05:08:22.073Z,86.82
2018-07-22T05:10:48.993Z,87.18
2018-07-22T05:13:15.884Z,84.78
2018-07-22T05:15:42.811Z,84.92
2018-07-22T05:18:09.745Z,85.90
2018-07-22T05:20:36.652Z,86.45
2018-07-22T05:23:03.545Z,87.37
2018-07-22T05:25:30.452Z,87.30
2018-07-22T05:27:57.353Z,86.55
2018-07-22T05:30:24.256Z,86.88
2018-07-22T05:32:51.152Z,86.62
2018-07-22T05:35:18.057Z,86.83
2018-07-22T05:37:44.961Z,86.46
2018-07-22T05:40:11.896Z,86.31
2018-07-22T05:42:38.816Z,86.25
2018-07-22T05:45:05.732Z,85.94
2018-07-22T05:47:32.624Z,85.50
2018-07-22T05:49:59.540Z,85.38
2018-07-22T05:52:26.456Z,83.80
2018-07-22T05:54:53.407Z,83.34
2018-07-22T05:57:20.295Z,83.77
2018-07-22T05:59:47.200Z,82.19
2018-07-22T06:02:14.124Z,80.44
2018-07-22T06:04:41.013Z,80.48
2018-07-22T06:07:07.944Z,77.86
2018-07-22T06:09:34.820Z,75.67
2018-07-22T06:12:01.741Z,73.06
2018-07-22T06:14:28.627Z,71.03
2018-07-22T06:16:55.513Z,72.41
2018-07-22T06:19:22.400Z,74.73
2018-07-22T06:21:49.304Z,71.60
2018-07-22T06:24:16.193Z,69.32
2018-07-22T06:26:43.088Z,70.15
2018-07-22T06:29:09.984Z,70.69
2018-07-22T06:31:36.909Z,70.99
2018-07-22T06:34:03.816Z,69.57
2018-07-22T06:36:30.713Z,70.74
2018-07-22T06:38:57.613Z,69.55
2018-07-22T06:41:24.529Z,64.72
2018-07-22T06:43:51.443Z,64.85
2018-07-22T06:46:18.359Z,65.26
2018-07-22T06:48:45.253Z,65.87
2018-07-22T06:51:12.165Z,65.40
2018-07-22T06:53:39.121Z,63.45
2018-07-22T06:56:06.068Z,64.31
2018-07-22T06:58:32.962Z,62.45
2018-07-22T07:00:59.937Z,61.37
2018-07-22T07:03:26.781Z,60.62
2018-07-22T07:05:53.683Z,60.86
2018-07-22T07:08:20.576Z,63.28
2018-07-22T07:10:47.565Z,63.07
2018-07-22T07:13:14.471Z,62.08
2018-07-22T07:15:41.364Z,59.42
2018-07-22T07:18:08.278Z,58.78
2018-07-22T07:20:35.168Z,59.61
2018-07-22T07:23:02.084Z,58.72
2018-07-22T07:25:28.984Z,59.10
2018-07-22T07:27:55.892Z,60.25
2018-07-22T07:30:22.780Z,61.41
2018-07-22T07:32:49.701Z,60.78
2018-07-22T07:35:16.608Z,60.17
2018-07-22T07:37:43.546Z,61.33
2018-07-22T07:40:10.456Z,61.96
2018-07-22T07:42:37.369Z,61.63
2018-07-22T07:45:04.338Z,58.90
2018-07-22T07:47:31.260Z,60.87
2018-07-22T07:49:58.164Z,55.75
2018-07-22T07:52:25.080Z,56.25
2018-07-22T07:54:51.972Z,56.63
2018-07-22T07:57:18.865Z,54.55
2018-07-22T07:59:45.773Z,53.64
2018-07-22T08:02:12.703Z,53.13
2018-07-22T08:04:39.612Z,52.37
2018-07-22T08:07:06.517Z,52.60
2018-07-22T08:09:33.413Z,52.66
2018-07-22T08:12:00.351Z,52.32
2018-07-22T08:14:27.257Z,50.48
2018-07-22T08:16:54.194Z,50.69
2018-07-22T08:19:21.103Z,50.54
2018-07-22T08:21:48.334Z,51.51
2018-07-22T08:24:15.058Z,53.42
2018-07-22T08:29:27.508Z,51.96
2018-07-22T08:31:54.484Z,51.81
2018-07-22T08:34:21.457Z,52.25
2018-07-22T08:36:48.553Z,51.92
2018-07-22T08:39:16.401Z,52.30
2018-07-22T08:41:43.327Z,53.84
2018-07-22T08:44:10.217Z,53.78
2018-07-22T08:46:37.544Z,54.04
2018-07-22T08:49:04.529Z,54.08
2018-07-22T08:51:32.256Z,53.22
2018-07-22T08:53:59.168Z,53.55
2018-07-22T08:56:26.128Z,50.98
2018-07-22T08:58:53.011Z,49.63
2018-07-22T09:01:19.917Z,49.97
2018-07-22T09:03:46.833Z,48.56
2018-07-22T09:06:13.727Z,45.97
2018-07-22T09:08:40.614Z,45.39
2018-07-22T09:11:07.488Z,45.40
2018-07-22T09:13:34.394Z,45.32
2018-07-22T09:16:01.264Z,45.48
2018-07-22T09:18:28.157Z,45.96
2018-07-22T09:20:55.052Z,45.06
2018-07-22T09:23:21.936Z,45.34
2018-07-22T09:25:48.821Z,44.89
2018-07-22T09:28:15.712Z,44.97
2018-07-22T09:30:42.585Z,45.10
2018-07-22T09:33:09.494Z,46.17
2018-07-22T09:35:36.368Z,45.39
2018-07-22T09:38:03.275Z,45.14
2018-07-22T09:40:30.544Z,45.36
2018-07-22T09:42:57.441Z,43.78
2018-07-22T09:45:24.336Z,42.61
2018-07-22T09:47:51.261Z,42.26
2018-07-22T09:50:18.158Z,41.96
2018-07-22T09:52:45.072Z,40.85
2018-07-22T09:55:11.959Z,39.59
2018-07-22T09:57:38.852Z,40.93
2018-07-22T10:00:06.092Z,40.44
2018-07-22T10:02:33.024Z,40.87
2018-07-22T10:04:59.919Z,41.63
2018-07-22T10:07:26.811Z,40.01
2018-07-22T10:09:53.760Z,39.65
2018-07-22T10:12:20.661Z,39.78
2018-07-22T10:14:47.734Z,38.75
2018-07-22T10:17:14.508Z,40.14
2018-07-22T10:19:42.555Z,39.04
2018-07-22T10:22:09.444Z,38.27
2018-07-22T10:24:36.334Z,37.26
2018-07-22T10:27:03.224Z,38.17
2018-07-22T10:29:30.123Z,38.23
2018-07-22T10:31:57.053Z,38.11
2018-07-22T10:34:23.956Z,39.02
2018-07-22T10:36:50.833Z,39.52
2018-07-22T10:39:17.907Z,39.61
2018-07-22T10:41:44.808Z,38.68
2018-07-22T10:44:11.747Z,39.05
2018-07-22T10:46:39.504Z,38.75
2018-07-22T10:49:06.392Z,40.09
2018-07-22T10:51:33.315Z,38.75
2018-07-22T10:54:00.259Z,36.86
2018-07-22T10:56:28.224Z,37.41
2018-07-22T10:58:55.125Z,37.74
2018-07-22T11:01:22.008Z,38.73
2018-07-22T11:03:48.940Z,37.66
2018-07-22T11:06:15.851Z,36.21
2018-07-22T11:08:42.746Z,35.38
2018-07-22T11:11:09.637Z,35.49
2018-07-22T11:13:36.828Z,36.41
2018-07-22T11:16:04.028Z,36.81
2018-07-22T11:18:30.956Z,35.38
2018-07-22T11:20:58.030Z,35.95
2018-07-22T11:23:24.896Z,34.08
2018-07-22T11:25:51.805Z,34.57
2018-07-22T11:28:18.699Z,36.06
2018-07-22T11:30:45.603Z,38.56
2018-07-22T11:33:12.509Z,38.29
2018-07-22T11:35:39.420Z,38.18
2018-07-22T11:38:06.400Z,38.10
2018-07-22T11:40:33.307Z,39.36
2018-07-22T11:43:00.191Z,39.75
2018-07-22T11:45:27.073Z,39.13
2018-07-22T11:47:56.230Z,39.47
2018-07-22T11:50:25.038Z,38.64
2018-07-22T11:52:51.950Z,37.12
2018-07-22T11:55:18.849Z,37.37
2018-07-22T11:57:45.739Z,36.45
2018-07-22T12:00:12.671Z,34.63
2018-07-22T12:02:39.540Z,36.40
2018-07-22T12:05:06.492Z,35.50
2018-07-22T12:07:33.432Z,36.44
2018-07-22T12:10:00.329Z,36.90
2018-07-22T12:12:27.262Z,34.18
2018-07-22T12:14:54.147Z,34.05
2018-07-22T12:17:21.052Z,35.46
2018-07-22T12:19:47.996Z,35.88
2018-07-22T12:22:14.901Z,36.87
2018-07-22T12:24:41.837Z,37.29
2018-07-22T12:27:08.734Z,35.56
2018-07-22T12:29:35.635Z,35.57
2018-07-22T12:32:02.529Z,35.76
2018-07-22T12:34:29.457Z,34.44
2018-07-22T12:36:56.333Z,32.91
2018-07-22T12:39:23.236Z,32.13
2018-07-22T12:41:50.116Z,32.48
2018-07-22T12:44:17.037Z,31.75
2018-07-22T12:46:43.936Z,31.09
2018-07-22T12:49:10.819Z,32.33
2018-07-22T12:51:37.739Z,31.47
2018-07-22T12:54:04.665Z,31.81
2018-07-22T12:56:31.564Z,30.36
2018-07-22T12:58:59.004Z,30.53
2018-07-22T13:01:25.985Z,30.62
2018-07-22T13:03:52.893Z,31.07
2018-07-22T13:06:19.815Z,30.07
2018-07-22T13:08:46.695Z,30.01
2018-07-22T13:11:13.604Z,30.99
2018-07-22T13:13:40.502Z,30.17
2018-07-22T13:16:07.648Z,30.84
2018-07-22T13:18:34.578Z,31.23
2018-07-22T13:21:01.475Z,31.19
2018-07-22T13:23:28.380Z,29.71
2018-07-22T13:25:55.563Z,31.64
2018-07-22T13:28:22.464Z,31.62
2018-07-22T13:30:49.370Z,32.03
2018-07-22T13:33:16.280Z,32.08
2018-07-22T13:35:43.180Z,32.58
2018-07-22T13:38:10.460Z,33.22
2018-07-22T13:40:37.276Z,33.82
2018-07-22T13:43:04.213Z,33.89
2018-07-22T13:45:31.315Z,33.96
2018-07-22T13:47:58.152Z,33.07
2018-07-22T13:50:25.054Z,33.16
2018-07-22T13:52:52.044Z,32.42
2018-07-22T13:55:18.936Z,33.11
2018-07-22T13:57:45.823Z,33.80
2018-07-22T14:00:12.723Z,31.57
2018-07-22T14:02:39.604Z,32.63
2018-07-22T14:05:06.532Z,32.99
2018-07-22T14:07:33.427Z,32.31
2018-07-22T14:10:00.321Z,32.37
2018-07-22T14:12:27.216Z,32.76
2018-07-22T14:14:54.113Z,33.10
2018-07-22T14:17:21.020Z,33.58
2018-07-22T14:19:47.904Z,33.71
2018-07-22T14:22:14.938Z,33.37
2018-07-22T14:24:41.874Z,32.42
2018-07-22T14:27:08.786Z,33.66
2018-07-22T14:29:35.688Z,34.23
2018-07-22T14:32:02.589Z,34.45
2018-07-22T14:34:29.476Z,35.84
2018-07-22T14:36:56.383Z,34.55
2018-07-22T14:39:23.276Z,36.64
2018-07-22T14:41:50.176Z,36.61
2018-07-22T14:44:17.073Z,38.29
2018-07-22T14:46:43.986Z,37.36
2018-07-22T14:49:10.852Z,38.08
2018-07-22T14:51:37.764Z,38.32
2018-07-22T14:54:04.670Z,40.11
2018-07-22T14:56:31.577Z,41.63
2018-07-22T14:58:58.468Z,41.77
2018-07-22T15:01:25.372Z,42.87
2018-07-22T15:03:52.264Z,43.96
2018-07-22T15:06:19.172Z,44.68
2018-07-22T15:08:46.055Z,46.85
2018-07-22T15:11:12.956Z,47.02
2018-07-22T15:13:39.890Z,48.24
2018-07-22T15:16:07.419Z,47.97
2018-07-22T15:18:34.564Z,49.96
2018-07-22T15:21:01.485Z,50.55
2018-07-22T15:23:28.404Z,52.00
2018-07-22T15:25:55.295Z,52.25
2018-07-22T15:28:22.181Z,52.42
2018-07-22T15:30:49.059Z,52.54
2018-07-22T15:33:15.944Z,53.94
2018-07-22T15:35:42.836Z,52.56
2018-07-22T15:38:10.078Z,51.08
2018-07-22T15:40:36.988Z,52.58
2018-07-22T15:43:03.950Z,55.11
2018-07-22T15:45:30.856Z,54.74
2018-07-22T15:47:57.761Z,55.33
2018-07-22T15:50:24.644Z,55.58
2018-07-22T15:52:51.548Z,54.92
2018-07-22T15:55:18.691Z,54.15
2018-07-22T15:57:45.476Z,57.74
2018-07-22T16:00:12.387Z,58.72
2018-07-22T16:02:39.516Z,58.62
2018-07-22T16:05:06.428Z,59.28
2018-07-22T16:07:33.361Z,58.37
2018-07-22T16:10:00.248Z,57.16
2018-07-22T16:12:27.160Z,57.86
2018-07-22T16:14:54.062Z,56.85
2018-07-22T16:17:20.980Z,57.62
2018-07-22T16:19:47.903Z,56.63
2018-07-22T16:22:14.815Z,57.68
2018-07-22T16:24:41.716Z,59.02
2018-07-22T16:27:08.667Z,60.94
2018-07-22T16:29:35.573Z,62.68
2018-07-22T16:32:02.488Z,64.09
2018-07-22T16:34:29.376Z,63.54
2018-07-22T16:36:56.289Z,63.42
2018-07-22T16:39:23.178Z,64.80
2018-07-22T16:41:50.083Z,65.74
2018-07-22T16:44:16.974Z,67.31
2018-07-22T16:46:43.888Z,66.65
2018-07-22T16:49:10.773Z,66.90
2018-07-22T16:51:37.668Z,67.27
2018-07-22T16:54:04.568Z,66.99
2018-07-22T16:56:31.508Z,66.94
2018-07-22T16:58:58.428Z,65.13
2018-07-22T17:01:25.320Z,65.06
2018-07-22T17:03:52.254Z,65.50
2018-07-22T17:06:19.193Z,66.54
2018-07-22T17:08:46.097Z,70.55
2018-07-22T17:11:12.988Z,70.80
2018-07-22T17:13:39.880Z,72.56
2018-07-22T17:16:06.780Z,71.31
2018-07-22T17:18:33.708Z,70.32
2018-07-22T17:21:00.752Z,72.17
2018-07-22T17:23:27.665Z,71.93
2018-07-22T17:25:54.563Z,74.38
2018-07-22T17:28:21.541Z,74.71
2018-07-22T17:30:48.428Z,75.23
2018-07-22T17:33:15.333Z,77.47
2018-07-22T17:35:42.222Z,75.53
2018-07-22T17:38:09.132Z,75.48
2018-07-22T17:40:36.034Z,77.77
2018-07-22T17:43:02.951Z,77.87
2018-07-22T17:45:29.872Z,78.23
2018-07-22T17:47:56.783Z,80.46
2018-07-22T17:50:23.672Z,80.78
2018-07-22T17:52:50.567Z,81.95
2018-07-22T17:55:17.460Z,81.71
2018-07-22T17:57:44.371Z,82.83
2018-07-22T18:00:12.270Z,84.57
2018-07-22T18:02:40.205Z,83.23
2018-07-22T18:05:07.096Z,81.48
2018-07-22T18:07:33.971Z,79.46
2018-07-22T18:10:00.869Z,78.36
2018-07-22T18:12:27.760Z,79.72
2018-07-22T18:14:54.680Z,78.77
2018-07-22T18:17:21.565Z,79.56
2018-07-22T18:19:48.485Z,80.29
2018-07-22T18:22:15.380Z,81.07
2018-07-22T18:24:42.320Z,83.23
2018-07-22T18:27:09.216Z,85.25
2018-07-22T18:29:36.208Z,85.57
2018-07-22T18:32:03.114Z,86.50
2018-07-22T18:34:30.025Z,86.98
2018-07-22T18:36:56.990Z,87.65
2018-07-22T18:39:23.885Z,88.44
2018-07-22T18:41:50.760Z,87.50
2018-07-22T18:44:17.672Z,87.93
2018-07-22T18:46:44.574Z,85.90
2018-07-22T18:49:11.472Z,86.63
2018-07-22T18:51:38.373Z,85.48
2018-07-22T18:54:05.402Z,84.55
2018-07-22T18:56:32.314Z,84.93
2018-07-22T18:58:59.221Z,84.87
2018-07-22T19:01:26.141Z,85.38
2018-07-22T19:03:53.056Z,87.63
2018-07-22T19:06:19.944Z,88.32
2018-07-22T19:08:46.844Z,88.67
2018-07-22T19:11:13.740Z,89.48
2018-07-22T19:13:40.632Z,90.72
2018-07-22T19:16:07.536Z,91.77
2018-07-22T19:18:34.448Z,92.51
2018-07-22T19:21:01.341Z,93.28
2018-07-22T19:23:28.227Z,93.82
2018-07-22T19:25:55.111Z,93.84
2018-07-22T19:28:22.013Z,94.10
2018-07-22T19:30:48.913Z,94.35
2018-07-22T19:33:15.808Z,96.28
2018-07-22T19:35:42.708Z,96.04
2018-07-22T19:38:09.600Z,97.12
2018-07-22T19:40:36.510Z,97.37
2018-07-22T19:43:03.400Z,98.40
2018-07-22T19:45:30.296Z,97.92
2018-07-22T19:47:57.188Z,99.06
2018-07-22T19:50:24.096Z,99.33
2018-07-22T19:52:50.993Z,99.40
2018-07-22T19:55:17.912Z,99.20
2018-07-22T19:57:44.815Z,100.00
2018-07-22T20:00:11.921Z,100.00
2018-07-22T20:02:38.816Z,100.00
2018-07-22T20:05:05.753Z,100.00
2018-07-22T20:07:32.647Z,100.00
2018-07-22T20:09:59.551Z,100.00
2018-07-22T20:12:26.454Z,100.00
2018-07-22T20:14:53.361Z,100.00
2018-07-22T20:17:20.280Z,100.00
2018-07-22T20:19:47.378Z,100.00
2018-07-22T20:22:14.304Z,100.00
2018-07-22T20:24:41.988Z,100.00
2018-07-22T20:27:08.920Z,100.00
2018-07-22T20:29:35.846Z,100.00
2018-07-22T20:32:02.772Z,100.00
2018-07-22T20:34:29.693Z,100.00
2018-07-22T20:36:56.720Z,100.00
2018-07-22T20:39:23.644Z,100.00
2018-07-22T20:41:50.549Z,100.00
2018-07-22T20:44:17.468Z,100.00
2018-07-22T20:46:44.364Z,100.00
2018-07-22T20:49:11.299Z,100.00
2018-07-22T20:51:38.208Z,100.00
2018-07-22T20:54:05.112Z,100.00
2018-07-22T20:56:32.014Z,100.00
2018-07-22T20:58:58.900Z,100.00
2018-07-22T21:01:25.793Z,100.00
2018-07-22T21:03:52.709Z,100.00
2018-07-22T21:06:19.606Z,100.00
2018-07-22T21:08:46.560Z,100.00
2018-07-22T21:11:13.697Z,100.00
2018-07-22T21:13:40.580Z,100.00
2018-07-22T21:16:07.484Z,100.00
2018-07-22T21:18:34.390Z,100.00
2018-07-22T21:21:01.348Z,100.00
2018-07-22T21:23:28.223Z,100.00
2018-07-22T21:25:55.127Z,100.00
2018-07-22T21:28:22.032Z,100.00
2018-07-22T21:30:48.948Z,100.00
2018-07-22T21:33:15.897Z,100.00
2018-07-22T21:35:42.817Z,100.00
2018-07-22T21:38:09.721Z,100.00
2018-07-22T21:40:36.612Z,100.00
2018-07-22T21:43:03.528Z,100.00
2018-07-22T21:45:30.424Z,100.00
2018-07-22T21:47:57.321Z,100.00
2018-07-22T21:50:24.235Z,100.00
2018-07-22T21:52:51.128Z,100.00
2018-07-22T21:55:18.036Z,100.00
2018-07-22T21:57:44.949Z,100.00
2018-07-22T22:00:19.498Z,100.00
2018-07-22T22:02:46.400Z,100.00
2018-07-22T22:05:13.352Z,100.00
2018-07-22T22:07:40.247Z,100.00
2018-07-22T22:10:07.179Z,100.00
2018-07-22T22:12:34.092Z,100.00
2018-07-22T22:15:00.991Z,100.00
2018-07-22T22:17:27.904Z,100.00
2018-07-22T22:19:54.801Z,100.00
2018-07-22T22:22:21.712Z,100.00
2018-07-22T22:24:48.668Z,100.00
2018-07-22T22:27:15.528Z,100.00
2018-07-22T22:29:42.442Z,100.00
2018-07-22T22:32:09.341Z,100.00
2018-07-22T22:34:36.239Z,100.00
2018-07-22T22:37:03.156Z,100.00
2018-07-22T22:39:30.044Z,100.00
2018-07-22T22:41:56.986Z,100.00
2018-07-22T22:44:23.877Z,100.00
2018-07-22T22:46:50.818Z,100.00
2018-07-22T22:49:17.716Z,100.00
2018-07-22T22:51:44.661Z,100.00
2018-07-22T22:54:11.560Z,100.00
2018-07-22T22:56:38.480Z,100.00
2018-07-22T22:59:14.082Z,100.00
2018-07-22T23:01:41.012Z,100.00
2018-07-22T23:04:07.932Z,100.00
2018-07-22T23:06:34.857Z,100.00
2018-07-22T23:09:01.741Z,100.00
2018-07-22T23:11:28.693Z,100.00
2018-07-22T23:13:55.616Z,100.00
2018-07-22T23:16:22.524Z,100.00
2018-07-22T23:18:49.450Z,100.00
2018-07-22T23:21:16.344Z,100.00
2018-07-22T23:23:43.300Z,100.00
2018-07-22T23:26:10.188Z,100.00
2018-07-22T23:28:37.124Z,100.00
2018-07-22T23:31:04.052Z,100.00
2018-07-22T23:33:30.947Z,100.00
2018-07-22T23:35:57.823Z,100.00
2018-07-22T23:38:24.732Z,100.00
2018-07-22T23:40:51.640Z,100.00
2018-07-22T23:43:18.543Z,100.00
2018-07-22T23:45:45.431Z,100.00
2018-07-22T23:48:12.330Z,100.00
2018-07-22T23:50:39.217Z,100.00
2018-07-22T23:53:06.165Z,100.00
2018-07-22T23:55:33.055Z,100.00
2018-07-22T23:57:59.961Z,100.00
